Time;durP1;ratioP1;P1;durP2;ratioP2;P2;SDS_P1;SDS_P2;PMS_P1;PMS_P2;Temp;Humidity;BMP_temperature;BMP_pressure;BME280_temperature;BME280_humidity;BME280_pressure;Samples;Min_cycle;Max_cycle;Signal;HPM_P1;HPM_P2
2023/05/25 00:00:26;;;;;;;21.98;6.90;;;9.40;99.90;;;;;;4931390;28;198155;-66
2023/05/25 00:02:53;;;;;;;19.83;7.25;;;9.40;99.90;;;;;;4985572;28;20056;-68
2023/05/25 00:05:19;;;;;;;16.33;6.10;;;9.40;99.90;;;;;;4941446;28;211552;-67
2023/05/25 00:07:46;;;;;;;19.23;6.60;;;9.40;99.90;;;;;;4982397;28;20485;-67
2023/05/25 00:10:12;;;;;;;18.23;6.32;;;9.30;99.90;;;;;;4957877;28;207765;-68
2023/05/25 00:12:38;;;;;;;21.65;6.25;;;9.30;99.90;;;;;;4984445;28;20073;-68
2023/05/25 00:15:05;;;;;;;22.90;6.60;;;9.20;99.90;;;;;;4969346;28;209009;-67
2023/05/25 00:17:32;;;;;;;24.40;6.57;;;9.20;99.90;;;;;;5005870;28;20053;-68
2023/05/25 00:20:06;;;;;;;21.33;6.53;;;9.20;99.90;;;;;;4973368;28;148627;-69
2023/05/25 00:22:36;;;;;;;17.67;5.80;;;9.20;99.90;;;;;;4985788;28;20399;-68
2023/05/25 00:25:05;;;;;;;21.98;7.13;;;9.20;99.90;;;;;;4981489;28;209419;-67
2023/05/25 00:27:31;;;;;;;18.10;5.90;;;9.10;99.90;;;;;;5002770;28;20623;-68
2023/05/25 00:29:58;;;;;;;23.15;6.82;;;9.10;99.90;;;;;;4968695;28;207744;-67
2023/05/25 00:32:24;;;;;;;20.17;6.25;;;9.10;99.90;;;;;;5004076;28;21220;-68
2023/05/25 00:34:50;;;;;;;17.70;6.60;;;9.00;99.90;;;;;;4973798;28;209516;-69
2023/05/25 00:37:16;;;;;;;20.50;6.30;;;9.00;99.90;;;;;;4985798;28;20415;-67
2023/05/25 00:39:42;;;;;;;21.63;6.65;;;9.00;99.90;;;;;;4949538;28;210173;-68
2023/05/25 00:42:09;;;;;;;19.65;6.28;;;9.00;99.90;;;;;;5005669;28;20061;-68
2023/05/25 00:44:35;;;;;;;15.15;5.53;;;9.00;99.90;;;;;;4956746;28;208104;-67
2023/05/25 00:47:02;;;;;;;18.00;6.88;;;8.90;99.90;;;;;;4990554;28;20054;-68
2023/05/25 00:49:32;;;;;;;17.73;6.43;;;8.90;99.90;;;;;;4946891;28;208976;-67
2023/05/25 00:51:59;;;;;;;17.23;6.10;;;8.90;99.90;;;;;;5008354;28;21128;-69
2023/05/25 00:54:26;;;;;;;21.02;6.97;;;8.80;99.90;;;;;;4961920;28;207376;-67
2023/05/25 00:56:56;;;;;;;26.65;7.20;;;8.80;99.90;;;;;;5004292;28;20049;-67
2023/05/25 00:59:34;;;;;;;18.67;6.00;;;8.80;99.90;;;;;;4944669;28;207220;-67
2023/05/25 01:02:07;;;;;;;17.10;5.97;;;8.80;99.90;;;;;;5006476;28;20355;-68
2023/05/25 01:04:35;;;;;;;20.20;6.45;;;8.80;99.90;;;;;;4964147;28;207828;-66
2023/05/25 01:07:03;;;;;;;16.25;5.60;;;8.70;99.90;;;;;;5006248;28;20065;-65
2023/05/25 01:09:33;;;;;;;16.48;6.45;;;8.70;99.90;;;;;;4947635;28;209662;-69
2023/05/25 01:12:02;;;;;;;19.60;6.43;;;8.70;99.90;;;;;;4984881;28;20046;-68
2023/05/25 01:14:30;;;;;;;19.48;6.43;;;8.70;99.90;;;;;;4948030;28;212405;-69
2023/05/25 01:16:57;;;;;;;16.63;6.28;;;8.70;99.90;;;;;;4992416;28;20053;-68
2023/05/25 01:19:24;;;;;;;17.50;6.22;;;8.70;99.90;;;;;;4942330;28;210418;-68
2023/05/25 01:22:00;;;;;;;18.42;6.55;;;8.60;99.90;;;;;;5008690;28;20049;-68
2023/05/25 01:24:43;;;;;;;16.90;6.00;;;8.70;99.90;;;;;;4959250;28;251522;-68
2023/05/25 01:27:20;;;;;;;15.73;6.53;;;8.60;99.90;;;;;;4985071;28;20050;-68
2023/05/25 01:29:47;;;;;;;19.25;5.82;;;8.60;99.90;;;;;;4953415;28;209419;-67
2023/05/25 01:32:16;;;;;;;15.98;5.53;;;8.70;99.90;;;;;;5007899;28;20054;-67
2023/05/25 01:34:43;;;;;;;13.85;5.05;;;8.60;99.90;;;;;;4957806;28;206468;-68
2023/05/25 01:37:12;;;;;;;16.75;5.35;;;8.60;99.90;;;;;;4989008;28;20058;-67
2023/05/25 01:39:41;;;;;;;16.08;5.70;;;8.60;99.90;;;;;;4975624;28;217893;-66
2023/05/25 01:42:07;;;;;;;17.83;6.35;;;8.60;99.90;;;;;;5009019;28;20054;-68
2023/05/25 01:44:34;;;;;;;19.13;6.40;;;8.60;99.90;;;;;;4966508;28;219940;-67
2023/05/25 01:47:15;;;;;;;17.55;6.47;;;8.50;99.90;;;;;;5011181;28;20046;-68
2023/05/25 01:50:09;;;;;;;18.85;6.35;;;8.50;99.90;;;;;;4974108;28;210729;-69
2023/05/25 01:52:40;;;;;;;18.85;6.75;;;8.50;99.90;;;;;;5006833;28;20053;-68
2023/05/25 01:55:11;;;;;;;16.65;6.63;;;8.40;99.90;;;;;;4977211;28;207321;-68
2023/05/25 01:57:41;;;;;;;;;;;8.40;99.90;;;;;;5002559;28;20046;-69
2023/05/25 02:00:09;;;;;;;20.63;7.45;;;8.30;99.90;;;;;;4930257;28;208013;-66
2023/05/25 02:02:38;;;;;;;22.77;8.57;;;8.30;99.90;;;;;;5035772;28;20061;-68
2023/05/25 02:05:05;;;;;;;20.70;8.73;;;8.20;99.90;;;;;;4971768;28;207963;-66
2023/05/25 02:07:32;;;;;;;19.15;6.80;;;8.20;99.90;;;;;;5005967;28;20060;-68
2023/05/25 02:09:58;;;;;;;18.30;7.00;;;8.20;99.90;;;;;;4926059;28;206937;-67
2023/05/25 02:12:25;;;;;;;21.42;7.18;;;8.10;99.90;;;;;;4979575;28;20053;-68
2023/05/25 02:14:51;;;;;;;19.67;7.28;;;8.10;99.90;;;;;;4967955;28;226447;-68
2023/05/25 02:17:17;;;;;;;19.25;7.93;;;8.10;99.90;;;;;;5007403;28;20545;-68
2023/05/25 02:19:44;;;;;;;17.95;7.03;;;8.10;99.90;;;;;;4963009;28;210017;-66
2023/05/25 02:22:10;;;;;;;17.10;6.30;;;8.10;99.90;;;;;;4985521;28;20081;-68
2023/05/25 02:24:36;;;;;;;21.85;7.68;;;8.00;99.90;;;;;;4958871;28;207160;-68
2023/05/25 02:27:04;;;;;;;19.50;6.82;;;8.00;99.90;;;;;;5013716;28;20088;-68
2023/05/25 02:29:31;;;;;;;20.00;8.07;;;8.00;99.90;;;;;;4970922;28;215797;-68
2023/05/25 02:31:57;;;;;;;21.25;7.15;;;8.00;99.90;;;;;;5010822;28;20780;-68
2023/05/25 02:34:24;;;;;;;18.92;7.57;;;8.00;99.90;;;;;;4956598;28;209283;-67
2023/05/25 02:36:50;;;;;;;20.40;7.72;;;8.00;99.90;;;;;;4985927;28;20064;-68
2023/05/25 02:39:16;;;;;;;16.45;7.30;;;8.00;99.90;;;;;;4928911;28;213309;-67
2023/05/25 02:41:42;;;;;;;18.75;7.55;;;7.90;99.90;;;;;;4980058;28;20065;-69
2023/05/25 02:44:08;;;;;;;17.40;6.70;;;7.90;99.90;;;;;;4946207;28;216108;-69
2023/05/25 02:46:34;;;;;;;18.90;7.13;;;7.80;99.90;;;;;;5009929;28;20627;-67
2023/05/25 02:49:00;;;;;;;20.20;6.28;;;7.80;99.90;;;;;;4954724;28;209366;-69
2023/05/25 02:51:27;;;;;;;14.85;6.30;;;7.80;99.90;;;;;;4998637;28;20556;-68
2023/05/25 02:53:53;;;;;;;14.77;5.53;;;7.80;99.90;;;;;;4946763;28;210861;-66
2023/05/25 02:56:21;;;;;;;22.20;7.53;;;7.80;99.90;;;;;;4997456;28;20058;-69
2023/05/25 02:58:48;;;;;;;15.48;6.30;;;7.70;99.90;;;;;;4917676;28;223569;-68
2023/05/25 03:01:17;;;;;;;15.05;6.35;;;7.70;99.90;;;;;;4998370;28;20061;-67
2023/05/25 03:03:45;;;;;;;18.02;7.15;;;7.70;99.90;;;;;;4942847;28;208003;-68
2023/05/25 03:06:12;;;;;;;17.30;5.70;;;7.70;99.90;;;;;;5012418;28;20050;-69
2023/05/25 03:08:38;;;;;;;17.52;6.68;;;7.70;99.90;;;;;;4933019;28;210112;-67
2023/05/25 03:11:04;;;;;;;16.60;6.53;;;7.60;99.90;;;;;;5019213;28;20066;-69
2023/05/25 03:13:30;;;;;;;16.67;6.13;;;7.60;99.90;;;;;;4966102;28;224259;-67
2023/05/25 03:15:56;;;;;;;12.77;6.03;;;7.60;99.90;;;;;;5033529;28;20053;-69
2023/05/25 03:18:23;;;;;;;16.65;6.10;;;7.60;99.90;;;;;;4957290;28;206816;-69
2023/05/25 03:20:49;;;;;;;15.77;6.07;;;7.50;99.90;;;;;;5020509;28;20061;-67
2023/05/25 03:23:15;;;;;;;13.55;5.50;;;7.50;99.90;;;;;;4957226;28;211332;-69
2023/05/25 03:25:41;;;;;;;16.25;6.55;;;7.50;99.90;;;;;;5006600;28;20061;-70
2023/05/25 03:28:07;;;;;;;19.67;6.93;;;7.50;99.90;;;;;;4930388;28;210253;-66
2023/05/25 03:30:34;;;;;;;19.13;7.60;;;7.50;99.90;;;;;;5021416;28;20919;-68
2023/05/25 03:33:00;;;;;;;22.55;7.72;;;7.60;99.90;;;;;;4991809;28;209440;-68
2023/05/25 03:35:26;;;;;;;14.80;6.57;;;7.60;99.90;;;;;;4988130;28;189761;-68
2023/05/25 03:37:52;;;;;;;17.20;6.15;;;7.60;99.90;;;;;;5006871;28;20049;-68
2023/05/25 03:40:18;;;;;;;19.27;6.80;;;7.60;99.90;;;;;;4961403;28;207768;-69
2023/05/25 03:42:45;;;;;;;16.38;6.93;;;7.50;99.90;;;;;;4987119;28;20062;-68
2023/05/25 03:45:11;;;;;;;21.02;7.97;;;7.50;99.90;;;;;;4976569;28;207167;-68
2023/05/25 03:47:37;;;;;;;23.52;7.85;;;7.50;99.90;;;;;;5004779;28;21762;-67
2023/05/25 03:50:05;;;;;;;20.63;7.82;;;7.60;99.90;;;;;;4973391;28;216425;-67
2023/05/25 03:52:32;;;;;;;19.02;6.80;;;7.60;99.90;;;;;;5005086;28;20057;-65
2023/05/25 03:55:00;;;;;;;19.17;7.68;;;7.60;99.90;;;;;;4958832;28;219804;-68
2023/05/25 03:57:27;;;;;;;16.13;7.68;;;7.60;99.90;;;;;;5006263;28;20415;-68
2023/05/25 03:59:53;;;;;;;18.98;6.82;;;7.70;99.90;;;;;;4945679;28;206887;-68
2023/05/25 04:02:20;;;;;;;13.18;6.00;;;7.70;99.90;;;;;;4989329;28;20050;-68
2023/05/25 04:04:49;;;;;;;18.92;8.13;;;7.70;99.90;;;;;;4976646;28;142369;-68
2023/05/25 04:07:15;;;;;;;20.25;8.15;;;7.80;99.90;;;;;;5006505;28;20479;-67
2023/05/25 04:09:41;;;;;;;17.20;7.50;;;7.90;99.90;;;;;;4956830;28;207844;-68
2023/05/25 04:12:08;;;;;;;20.65;8.70;;;8.00;99.90;;;;;;5001047;28;20054;-67
2023/05/25 04:14:34;;;;;;;19.17;8.15;;;8.10;99.90;;;;;;4956507;28;210202;-67
2023/05/25 04:17:00;;;;;;;25.77;9.85;;;8.10;99.90;;;;;;5013985;28;20052;-68
2023/05/25 04:19:26;;;;;;;20.85;9.32;;;8.20;99.90;;;;;;4964051;28;207176;-68
2023/05/25 04:21:52;;;;;;;22.50;10.13;;;8.30;99.90;;;;;;5016128;28;20049;-70
2023/05/25 04:24:18;;;;;;;22.88;9.57;;;8.40;99.90;;;;;;4974639;28;209911;-69
2023/05/25 04:26:45;;;;;;;26.63;10.77;;;8.40;99.90;;;;;;5019285;28;20050;-69
2023/05/25 04:29:12;;;;;;;26.00;10.75;;;8.50;99.90;;;;;;4952668;28;208750;-68
2023/05/25 04:31:39;;;;;;;24.90;10.10;;;8.50;99.90;;;;;;4999466;28;20053;-69
2023/05/25 04:34:05;;;;;;;22.52;10.32;;;8.60;99.90;;;;;;4949719;28;231077;-69
2023/05/25 04:36:31;;;;;;;22.13;9.75;;;8.70;99.90;;;;;;4987788;28;20053;-67
2023/05/25 04:39:01;;;;;;;24.70;8.82;;;8.70;99.90;;;;;;4944587;28;207315;-68
2023/05/25 04:41:28;;;;;;;22.27;9.40;;;8.80;99.90;;;;;;4998109;28;20050;-68
2023/05/25 04:43:55;;;;;;;24.70;10.73;;;8.80;99.90;;;;;;4982293;28;207384;-69
2023/05/25 04:46:21;;;;;;;28.48;11.50;;;8.90;99.90;;;;;;5008313;28;20581;-69
2023/05/25 04:48:47;;;;;;;25.98;10.90;;;9.00;99.90;;;;;;4955832;28;207038;-68
2023/05/25 04:51:13;;;;;;;28.90;10.95;;;9.00;99.90;;;;;;5011331;28;20535;-69
2023/05/25 04:53:39;;;;;;;23.85;11.18;;;9.10;99.90;;;;;;4945016;28;208831;-68
2023/05/25 04:56:05;;;;;;;26.05;11.18;;;9.20;99.90;;;;;;5023724;28;20423;-69
2023/05/25 04:58:32;;;;;;;26.33;11.27;;;9.30;99.90;;;;;;4943357;28;207362;-69
2023/05/25 05:00:58;;;;;;;28.23;11.40;;;9.40;99.90;;;;;;4991859;28;20054;-67
2023/05/25 05:03:24;;;;;;;27.10;12.23;;;9.50;99.90;;;;;;4940625;28;206927;-68
2023/05/25 05:05:51;;;;;;;34.97;12.75;;;9.60;99.90;;;;;;5013664;28;20554;-68
2023/05/25 05:08:17;;;;;;;30.02;12.55;;;9.70;99.90;;;;;;4932650;28;222383;-68
2023/05/25 05:10:43;;;;;;;23.73;11.63;;;9.80;99.90;;;;;;5003698;28;20395;-68
2023/05/25 05:13:10;;;;;;;28.87;12.43;;;9.90;99.90;;;;;;4933778;28;208572;-66
2023/05/25 05:15:36;;;;;;;27.65;12.95;;;10.10;99.90;;;;;;5012536;28;20065;-68
2023/05/25 05:18:02;;;;;;;30.25;12.90;;;10.20;99.90;;;;;;4959180;28;211181;-68
2023/05/25 05:20:28;;;;;;;26.30;11.98;;;10.30;99.90;;;;;;5001114;28;209484;-65
2023/05/25 05:22:54;;;;;;;30.08;12.55;;;10.50;99.90;;;;;;4988800;28;20092;-66
2023/05/25 05:25:20;;;;;;;29.45;12.35;;;10.50;99.90;;;;;;4961663;28;207662;-68
2023/05/25 05:27:47;;;;;;;28.27;12.13;;;10.70;99.90;;;;;;4975324;28;20054;-68
2023/05/25 05:30:13;;;;;;;23.50;11.18;;;10.80;99.90;;;;;;4955705;28;208205;-67
2023/05/25 05:32:39;;;;;;;32.03;11.95;;;11.00;99.90;;;;;;4983165;28;20046;-67
2023/05/25 05:35:06;;;;;;;24.55;11.02;;;11.20;99.90;;;;;;4975164;28;212701;-68
2023/05/25 05:37:32;;;;;;;30.90;10.32;;;11.40;99.90;;;;;;5006141;28;20065;-68
2023/05/25 05:39:58;;;;;;;27.60;10.52;;;11.60;99.90;;;;;;4958656;28;212350;-69
2023/05/25 05:42:24;;;;;;;22.98;9.68;;;11.90;99.90;;;;;;5001926;28;20054;-69
2023/05/25 05:44:51;;;;;;;22.50;9.00;;;12.20;99.90;;;;;;4955843;28;210746;-70
2023/05/25 05:47:17;;;;;;;22.35;8.68;;;12.30;99.90;;;;;;4994956;28;20145;-67
2023/05/25 05:49:43;;;;;;;20.67;8.70;;;12.30;99.90;;;;;;4954625;28;214579;-67
2023/05/25 05:52:09;;;;;;;21.75;8.98;;;12.30;99.90;;;;;;4985307;28;20068;-66
2023/05/25 05:54:35;;;;;;;25.15;8.98;;;12.50;99.90;;;;;;4947714;28;212874;-66
2023/05/25 05:57:02;;;;;;;26.70;9.50;;;12.60;99.90;;;;;;4991345;28;20045;-66
2023/05/25 05:59:28;;;;;;;24.48;8.98;;;12.70;99.90;;;;;;4932232;28;210742;-68
2023/05/25 06:01:54;;;;;;;23.90;9.35;;;12.60;99.90;;;;;;4992674;28;20050;-67
2023/05/25 06:04:24;;;;;;;25.52;8.93;;;12.60;99.90;;;;;;4942105;28;215701;-67
2023/05/25 06:06:50;;;;;;;22.98;8.68;;;12.70;99.90;;;;;;4988691;28;20054;-66
2023/05/25 06:09:16;;;;;;;24.60;8.50;;;12.80;99.90;;;;;;4944104;28;208832;-64
2023/05/25 06:11:42;;;;;;;22.58;8.50;;;12.80;99.90;;;;;;5014321;28;20685;-68
2023/05/25 06:14:10;;;;;;;24.55;8.45;;;13.00;99.90;;;;;;4952434;28;211583;-67
2023/05/25 06:16:36;;;;;;;21.17;8.10;;;13.00;99.90;;;;;;5009942;28;20657;-68
2023/05/25 06:19:02;;;;;;;23.75;8.85;;;13.10;99.90;;;;;;4955625;28;237796;-68
2023/05/25 06:21:28;;;;;;;22.80;8.32;;;13.20;99.90;;;;;;4993446;28;20437;-67
2023/05/25 06:23:56;;;;;;;19.50;7.32;;;13.40;99.90;;;;;;4938653;28;215694;-68
2023/05/25 06:26:23;;;;;;;22.25;8.10;;;13.50;99.90;;;;;;4967786;28;20069;-66
2023/05/25 06:28:49;;;;;;;21.80;7.78;;;13.60;99.90;;;;;;4926279;28;206198;-67
2023/05/25 06:31:16;;;;;;;20.23;7.40;;;13.80;99.90;;;;;;5007403;28;20061;-67
2023/05/25 06:33:42;;;;;;;23.73;6.63;;;13.90;99.90;;;;;;4942662;28;235780;-67
2023/05/25 06:36:08;;;;;;;21.40;6.82;;;13.90;99.90;;;;;;4980508;28;20050;-68
2023/05/25 06:38:35;;;;;;;21.25;7.00;;;14.10;99.90;;;;;;4931597;28;213595;-67
2023/05/25 06:41:03;;;;;;;19.77;6.28;;;14.20;99.90;;;;;;4996604;28;20061;-68
2023/05/25 06:43:31;;;;;;;19.17;5.90;;;14.40;99.90;;;;;;4935001;28;214078;-68
2023/05/25 06:45:57;;;;;;;20.05;5.63;;;14.30;99.90;;;;;;5013849;28;20069;-66
2023/05/25 06:48:23;;;;;;;18.30;5.55;;;14.30;99.90;;;;;;4935226;28;213121;-67
2023/05/25 06:50:49;;;;;;;18.83;4.90;;;14.40;99.90;;;;;;5014423;28;20499;-67
2023/05/25 06:53:16;;;;;;;17.00;4.20;;;14.40;99.90;;;;;;4944974;28;222754;-66
2023/05/25 06:55:43;;;;;;;19.55;4.07;;;14.40;99.90;;;;;;4997700;28;20431;-68
2023/05/25 06:58:10;;;;;;;20.25;4.38;;;14.50;99.90;;;;;;4911592;28;210419;-68
2023/05/25 07:00:36;;;;;;;19.17;3.92;;;14.60;99.90;;;;;;4999727;28;20055;-68
2023/05/25 07:03:02;;;;;;;20.08;4.45;;;14.60;99.90;;;;;;4960699;28;212326;-68
2023/05/25 07:05:28;;;;;;;19.65;3.78;;;14.60;99.90;;;;;;4987084;28;210897;-67
2023/05/25 07:07:54;;;;;;;20.88;3.83;;;14.80;99.90;;;;;;4980479;28;20054;-67
2023/05/25 07:10:22;;;;;;;23.75;4.13;;;15.00;99.90;;;;;;4978107;28;207077;-69
2023/05/25 07:12:48;;;;;;;23.00;4.65;;;15.30;99.90;;;;;;5021432;28;20072;-68
2023/05/25 07:15:15;;;;;;;19.70;4.13;;;15.50;99.90;;;;;;4973191;28;212774;-67
2023/05/25 07:17:41;;;;;;;19.92;4.32;;;15.60;99.90;;;;;;4990119;28;20046;-68
2023/05/25 07:20:07;;;;;;;19.92;4.47;;;16.00;99.90;;;;;;4958261;28;220856;-68
2023/05/25 07:22:33;;;;;;;18.80;4.15;;;16.40;99.90;;;;;;4984035;28;20042;-68
2023/05/25 07:24:59;;;;;;;19.23;4.22;;;16.40;99.90;;;;;;4951122;28;202542;-65
2023/05/25 07:27:26;;;;;;;20.58;4.53;;;16.10;99.90;;;;;;4979655;28;20566;-65
2023/05/25 07:29:52;;;;;;;17.10;3.90;;;16.00;99.90;;;;;;4958217;28;225847;-67
2023/05/25 07:32:18;;;;;;;18.60;4.30;;;16.00;99.90;;;;;;4981970;28;20160;-66
2023/05/25 07:34:44;;;;;;;21.05;4.70;;;16.30;99.90;;;;;;4952802;28;221278;-67
2023/05/25 07:37:10;;;;;;;21.58;4.55;;;16.40;99.90;;;;;;4986053;28;20073;-67
2023/05/25 07:39:36;;;;;;;18.38;4.63;;;16.50;99.90;;;;;;4959318;28;214536;-68
2023/05/25 07:42:02;;;;;;;21.05;3.65;;;16.40;99.90;;;;;;5002113;28;20053;-67
2023/05/25 07:44:28;;;;;;;23.52;4.15;;;16.00;99.90;;;;;;4949409;28;212301;-66
2023/05/25 07:46:55;;;;;;;18.35;4.00;;;15.70;99.90;;;;;;4989491;28;20057;-69
2023/05/25 07:49:21;;;;;;;16.35;3.70;;;15.60;99.90;;;;;;4947701;28;213723;-68
2023/05/25 07:51:47;;;;;;;18.48;3.88;;;15.40;99.90;;;;;;4988191;28;20118;-67
2023/05/25 07:54:13;;;;;;;18.90;4.25;;;15.40;99.90;;;;;;4950496;28;210882;-65
2023/05/25 07:56:39;;;;;;;17.80;4.22;;;15.40;99.90;;;;;;5008518;28;20062;-68
2023/05/25 07:59:05;;;;;;;19.80;3.80;;;15.50;99.90;;;;;;4942231;28;210860;-68
2023/05/25 08:01:31;;;;;;;23.98;4.45;;;15.70;99.90;;;;;;4992359;28;20054;-69
2023/05/25 08:03:58;;;;;;;22.75;4.70;;;15.80;99.90;;;;;;4948335;28;228091;-68
2023/05/25 08:06:24;;;;;;;25.35;4.88;;;15.70;99.90;;;;;;5014511;28;20391;-67
2023/05/25 08:08:50;;;;;;;22.73;4.70;;;15.70;99.90;;;;;;4943073;28;212177;-66
2023/05/25 08:11:21;;;;;;;20.73;4.78;;;15.80;99.90;;;;;;4998732;28;20050;-66
2023/05/25 08:13:47;;;;;;;17.60;4.00;;;15.70;99.90;;;;;;4929421;28;211944;-67
2023/05/25 08:16:13;;;;;;;23.20;4.80;;;15.40;99.90;;;;;;4995015;28;20046;-67
2023/05/25 08:18:42;;;;;;;24.27;4.80;;;15.40;99.90;;;;;;4942864;28;213047;-69
2023/05/25 08:21:09;;;;;;;25.27;4.70;;;15.50;99.90;;;;;;5011295;28;20061;-68
2023/05/25 08:23:41;;;;;;;25.00;4.97;;;15.60;99.90;;;;;;4947269;28;217429;-68
2023/05/25 08:26:10;;;;;;;21.17;4.60;;;16.30;99.90;;;;;;5000996;28;20069;-68
2023/05/25 08:28:36;;;;;;;18.88;3.80;;;16.70;99.30;;;;;;4935148;28;207193;-69
2023/05/25 08:31:03;;;;;;;21.02;4.93;;;16.90;99.30;;;;;;5007193;28;20057;-68
2023/05/25 08:33:30;;;;;;;20.55;4.47;;;17.50;99.60;;;;;;4947410;28;212682;-69
2023/05/25 08:35:57;;;;;;;19.13;4.05;;;17.50;99.10;;;;;;4980134;28;1042355;-67
2023/05/25 08:38:24;;;;;;;23.20;5.32;;;17.90;98.30;;;;;;4935638;28;216488;-67
2023/05/25 08:41:05;;;;;;;20.00;4.60;;;18.00;97.90;;;;;;5021298;28;20061;-69
2023/05/25 08:43:32;;;;;;;21.10;4.05;;;17.50;97.10;;;;;;4966639;28;212603;-69
2023/05/25 08:46:04;;;;;;;23.80;5.22;;;17.80;97.80;;;;;;5005062;28;20061;-69
2023/05/25 08:48:32;;;;;;;21.75;4.53;;;17.80;96.80;;;;;;4945272;28;214672;-67
2023/05/25 08:51:03;;;;;;;19.10;4.28;;;17.50;96.50;;;;;;5007964;28;20054;-69
2023/05/25 08:53:33;;;;;;;23.75;4.95;;;18.00;96.00;;;;;;4934691;28;217233;-68
2023/05/25 08:56:00;;;;;;;24.45;5.05;;;17.30;96.50;;;;;;4999103;28;20053;-68
2023/05/25 08:58:32;;;;;;;25.10;4.78;;;17.50;96.80;;;;;;4916430;28;213265;-69
2023/05/25 09:01:02;;;;;;;23.98;4.90;;;18.40;96.40;;;;;;5019957;28;20053;-69
2023/05/25 09:03:32;;;;;;;24.55;5.20;;;19.20;95.50;;;;;;4947263;28;212330;-68
2023/05/25 09:05:58;;;;;;;21.75;4.40;;;19.90;95.20;;;;;;5000224;28;20073;-69
2023/05/25 09:08:26;;;;;;;21.88;5.40;;;20.10;94.80;;;;;;4934982;28;213396;-68
2023/05/25 09:10:54;;;;;;;20.13;4.97;;;19.60;94.30;;;;;;5013179;28;20054;-68
2023/05/25 09:13:20;;;;;;;23.80;4.88;;;20.10;94.40;;;;;;4945833;28;212753;-67
2023/05/25 09:15:47;;;;;;;24.35;4.80;;;19.70;93.60;;;;;;5015143;28;20082;-65
2023/05/25 09:18:13;;;;;;;20.17;5.35;;;19.90;94.20;;;;;;4930476;28;220374;-68
2023/05/25 09:20:40;;;;;;;22.48;5.10;;;19.30;94.00;;;;;;4993917;28;20500;-67
2023/05/25 09:23:07;;;;;;;24.40;5.10;;;19.20;94.80;;;;;;4925964;28;212957;-67
2023/05/25 09:25:34;;;;;;;19.95;4.90;;;19.50;94.80;;;;;;5010828;28;20380;-68
2023/05/25 09:28:01;;;;;;;17.38;4.30;;;20.00;93.70;;;;;;4964384;28;207162;-67
2023/05/25 09:30:31;;;;;;;20.80;4.82;;;20.80;93.30;;;;;;4950524;28;20443;-68
2023/05/25 09:33:11;;;;;;;24.35;5.47;;;20.00;93.20;;;;;;4977872;28;20502;-68
2023/05/25 09:35:38;;;;;;;21.48;4.90;;;19.40;93.20;;;;;;4935814;28;145602;-68
2023/05/25 09:38:06;;;;;;;22.75;5.07;;;19.60;93.50;;;;;;4935382;28;212317;-65
2023/05/25 09:40:37;;;;;;;25.77;4.90;;;18.70;93.00;;;;;;4998887;28;20510;-67
2023/05/25 09:43:04;;;;;;;21.08;5.00;;;18.20;93.90;;;;;;4960089;28;222579;-68
2023/05/25 09:45:30;;;;;;;21.90;4.47;;;18.40;94.20;;;;;;4996878;28;20054;-67
2023/05/25 09:47:57;;;;;;;24.83;5.38;;;18.40;93.90;;;;;;4983729;28;20062;-69
2023/05/25 09:50:27;;;;;;;23.65;5.28;;;18.60;93.90;;;;;;4957078;28;265694;-66
2023/05/25 09:52:58;;;;;;;22.97;4.93;;;18.40;94.10;;;;;;4990731;28;20074;-68
2023/05/25 09:55:28;;;;;;;;;;;18.00;94.40;;;;;;4931918;28;47125;-68
2023/05/25 09:57:55;;;;;;;20.85;4.57;;;18.00;93.60;;;;;;4982067;28;19921;-68
2023/05/25 10:00:23;;;;;;;22.33;4.20;;;18.80;93.80;;;;;;4954213;28;207391;-68
2023/05/25 10:02:50;;;;;;;17.58;4.65;;;19.60;92.80;;;;;;5000941;28;20060;-67
2023/05/25 10:05:16;;;;;;;22.50;4.65;;;19.20;92.70;;;;;;4937720;28;219161;-67
2023/05/25 10:07:45;;;;;;;20.52;4.35;;;18.80;93.40;;;;;;4981062;28;20038;-68
2023/05/25 10:10:15;;;;;;;22.50;4.30;;;19.60;93.30;;;;;;4971002;28;245961;-68
2023/05/25 10:12:43;;;;;;;17.23;4.72;;;19.80;93.00;;;;;;4999607;28;20061;-68
2023/05/25 10:15:11;;;;;;;22.48;4.32;;;19.20;92.50;;;;;;4931664;28;214103;-66
2023/05/25 10:17:47;;;;;;;19.90;4.90;;;19.20;92.40;;;;;;4982527;28;20515;-67
2023/05/25 10:20:14;;;;;;;17.98;4.13;;;18.20;93.10;;;;;;4970667;28;214225;-67
2023/05/25 10:22:49;;;;;;;20.67;4.32;;;18.30;92.90;;;;;;4981191;28;20054;-68
2023/05/25 10:25:30;;;;;;;22.38;4.95;;;18.70;92.70;;;;;;4970420;28;233984;-68
2023/05/25 10:28:15;;;;;;;16.95;4.25;;;19.30;92.20;;;;;;4998436;28;20060;-68
2023/05/25 10:30:42;;;;;;;20.98;4.88;;;19.80;91.80;;;;;;4950450;28;213812;-68
2023/05/25 10:33:09;;;;;;;19.42;4.22;;;20.20;91.30;;;;;;4946202;28;228846;-67
2023/05/25 10:35:38;;;;;;;19.25;4.25;;;19.40;92.00;;;;;;5006277;28;20058;-67
2023/05/25 10:38:05;;;;;;;19.88;4.70;;;19.70;92.30;;;;;;4938965;28;220460;-69
2023/05/25 10:40:33;;;;;;;21.05;4.70;;;19.40;91.80;;;;;;5005525;28;20049;-68
2023/05/25 10:42:59;;;;;;;21.58;4.82;;;18.80;92.20;;;;;;4990203;28;211912;-69
2023/05/25 10:45:26;;;;;;;22.13;4.93;;;19.00;92.90;;;;;;4986782;28;192177;-68
2023/05/25 10:47:52;;;;;;;21.13;4.63;;;19.30;92.30;;;;;;4972553;28;20061;-67
2023/05/25 10:50:23;;;;;;;24.23;5.22;;;18.80;92.80;;;;;;4960671;28;231566;-66
2023/05/25 10:53:04;;;;;;;22.77;5.50;;;18.20;93.00;;;;;;4997226;28;20058;-66
2023/05/25 10:55:52;;;;;;;22.35;5.57;;;18.50;92.70;;;;;;4937098;28;20427;-68
2023/05/25 10:58:21;;;;;;;22.10;4.75;;;19.10;92.80;;;;;;4914440;28;227037;-67
2023/05/25 11:01:10;;;;;;;23.00;5.00;;;18.70;92.80;;;;;;5018594;28;20057;-67
2023/05/25 11:03:56;;;;;;;21.52;5.45;;;18.90;92.60;;;;;;4949273;28;213155;-68
2023/05/25 11:06:45;;;;;;;23.58;5.18;;;19.90;92.50;;;;;;4980473;28;20046;-66
2023/05/25 11:09:30;;;;;;;23.30;4.82;;;19.20;92.20;;;;;;4943088;28;216491;-67
2023/05/25 11:11:58;;;;;;;21.63;4.60;;;18.80;92.10;;;;;;4982775;28;20313;-68
2023/05/25 11:14:30;;;;;;;20.58;4.97;;;19.20;92.90;;;;;;4957597;28;221149;-68
2023/05/25 11:17:10;;;;;;;23.65;5.15;;;19.20;92.20;;;;;;4995872;28;20046;-69
2023/05/25 11:19:41;;;;;;;20.83;5.00;;;19.30;92.30;;;;;;4938790;28;210402;-68
2023/05/25 11:22:19;;;;;;;;;;;18.20;92.90;;;;;;4986531;28;20065;-67
2023/05/25 11:24:49;;;;;;;22.70;5.25;;;18.30;93.50;;;;;;4956226;28;213933;-66
2023/05/25 11:27:26;;;;;;;24.15;4.90;;;19.40;93.00;;;;;;5000254;28;20054;-67
2023/05/25 11:29:53;;;;;;;20.48;5.00;;;19.60;92.40;;;;;;4949185;28;210002;-67
2023/05/25 11:32:20;;;;;;;24.40;5.20;;;18.90;92.60;;;;;;4985884;28;20508;-66
2023/05/25 11:34:52;;;;;;;24.10;5.38;;;19.10;92.70;;;;;;4953620;28;209161;-69
2023/05/25 11:37:23;;;;;;;22.65;4.60;;;19.90;92.50;;;;;;4987482;28;20050;-67
2023/05/25 11:39:50;;;;;;;22.20;5.05;;;20.20;92.20;;;;;;4948442;28;218653;-67
2023/05/25 11:42:21;;;;;;;23.20;5.38;;;20.40;91.10;;;;;;4987946;28;20524;-68
2023/05/25 11:44:48;;;;;;;20.27;5.50;;;20.60;91.00;;;;;;4945373;28;212144;-66
2023/05/25 11:47:17;;;;;;;20.02;4.60;;;21.20;91.50;;;;;;4987269;28;20408;-68
2023/05/25 11:49:45;;;;;;;23.80;5.05;;;21.20;91.00;;;;;;4967985;28;206298;-69
2023/05/25 11:52:21;;;;;;;17.70;4.53;;;20.00;91.50;;;;;;5001105;28;20153;-67
2023/05/25 11:54:49;;;;;;;23.52;4.82;;;20.40;90.90;;;;;;4948692;28;268578;-69
2023/05/25 11:57:21;;;;;;;21.42;5.18;;;21.00;90.80;;;;;;4985052;28;20046;-67
2023/05/25 11:59:49;;;;;;;25.77;6.00;;;21.30;90.20;;;;;;4950890;28;210249;-69
2023/05/25 12:02:16;;;;;;;21.08;5.05;;;21.60;90.10;;;;;;4985990;28;20058;-69
2023/05/25 12:04:53;;;;;;;19.92;4.80;;;20.80;90.30;;;;;;4954549;28;206304;-67
2023/05/25 12:07:19;;;;;;;20.65;5.35;;;21.00;90.50;;;;;;4999532;28;20065;-67
2023/05/25 12:09:45;;;;;;;20.52;5.10;;;21.20;90.60;;;;;;4948614;28;213467;-69
2023/05/25 12:12:12;;;;;;;17.45;4.13;;;21.60;89.30;;;;;;4983728;28;20058;-68
2023/05/25 12:14:50;;;;;;;22.23;4.90;;;20.10;89.30;;;;;;4940952;28;225631;-68
2023/05/25 12:17:19;;;;;;;20.90;5.07;;;20.60;90.30;;;;;;4983869;28;20053;-67
2023/05/25 12:19:46;;;;;;;20.80;4.93;;;21.20;90.10;;;;;;4951462;28;211513;-66
2023/05/25 12:22:13;;;;;;;17.88;4.70;;;21.60;89.10;;;;;;4980716;28;20045;-68
2023/05/25 12:24:40;;;;;;;19.08;5.10;;;21.70;89.80;;;;;;4962931;28;225706;-67
2023/05/25 12:27:19;;;;;;;20.60;4.85;;;21.90;90.20;;;;;;4985368;28;20070;-66
2023/05/25 12:29:46;;;;;;;20.80;5.30;;;21.00;88.30;;;;;;4972613;28;208311;-68
2023/05/25 12:32:12;;;;;;;21.00;4.97;;;20.90;90.20;;;;;;4981237;28;20065;-69
2023/05/25 12:34:38;;;;;;;21.75;5.18;;;21.20;90.20;;;;;;4954501;28;216395;-69
2023/05/25 12:37:16;;;;;;;22.02;5.22;;;20.50;90.20;;;;;;4991792;28;20527;-68
2023/05/25 12:39:42;;;;;;;22.25;5.28;;;20.20;90.70;;;;;;4953513;28;216008;-67